createdAt,value
2019-01-23T00:01:19.094Z,20.20
2019-01-23T00:03:46.551Z,19.97
2019-01-23T00:06:14.029Z,21.50
2019-01-23T00:08:41.502Z,21.97
2019-01-23T00:11:08.946Z,21.10
2019-01-23T00:13:36.420Z,19.70
2019-01-23T00:16:03.889Z,21.03
2019-01-23T00:18:31.356Z,20.40
2019-01-23T00:20:58.803Z,21.03
2019-01-23T00:23:26.280Z,21.30
2019-01-23T00:25:53.734Z,19.43
2019-01-23T00:28:21.183Z,20.30
2019-01-23T00:30:48.678Z,19.67
2019-01-23T00:33:16.125Z,20.77
2019-01-23T00:35:43.611Z,19.70
2019-01-23T00:38:11.059Z,20.93
2019-01-23T00:40:38.544Z,19.50
2019-01-23T00:43:06.008Z,20.33
2019-01-23T00:45:33.462Z,20.43
2019-01-23T00:48:00.937Z,20.47
2019-01-23T00:50:28.416Z,20.03
2019-01-23T00:52:55.852Z,20.90
2019-01-23T00:55:23.333Z,18.80
2019-01-23T00:57:50.804Z,18.97
2019-01-23T01:00:24.020Z,19.03
2019-01-23T01:02:51.468Z,19.30
2019-01-23T01:05:18.950Z,22.23
2019-01-23T01:07:46.418Z,21.13
2019-01-23T01:10:13.889Z,22.60
2019-01-23T01:12:41.426Z,21.67
2019-01-23T01:15:13.269Z,21.63
2019-01-23T01:17:36.380Z,20.80
2019-01-23T01:20:03.824Z,19.57
2019-01-23T01:22:31.313Z,21.40
2019-01-23T01:24:58.773Z,17.80
2019-01-23T01:27:26.221Z,18.77
2019-01-23T01:29:53.762Z,19.30
2019-01-23T01:32:21.217Z,19.73
2019-01-23T01:34:48.708Z,19.80
2019-01-23T01:37:18.471Z,21.00
2019-01-23T01:39:45.922Z,18.67
2019-01-23T01:42:13.439Z,17.53
2019-01-23T01:44:40.883Z,17.33
2019-01-23T01:47:08.346Z,18.67
2019-01-23T01:49:35.827Z,18.10
2019-01-23T01:52:03.306Z,19.13
2019-01-23T01:54:30.783Z,19.50
2019-01-23T01:56:58.260Z,18.47
2019-01-23T01:59:25.780Z,20.10
2019-01-23T02:01:53.250Z,20.57
2019-01-23T02:04:20.722Z,21.30
2019-01-23T02:06:48.188Z,21.60
2019-01-23T02:09:15.766Z,21.80
2019-01-23T02:11:45.398Z,19.27
2019-01-23T02:14:15.342Z,22.00
2019-01-23T02:16:40.471Z,21.50
2019-01-23T02:19:07.941Z,19.90
2019-01-23T02:21:35.416Z,21.20
2019-01-23T02:24:02.877Z,19.73
2019-01-23T02:26:30.339Z,19.80
2019-01-23T02:28:57.784Z,19.20
2019-01-23T02:31:44.876Z,20.17
2019-01-23T02:34:12.357Z,20.70
2019-01-23T02:36:39.800Z,20.30
2019-01-23T02:39:07.269Z,20.47
2019-01-23T02:41:34.768Z,20.40
2019-01-23T02:44:02.723Z,20.37
2019-01-23T02:46:30.170Z,21.80
2019-01-23T02:48:57.648Z,20.83
2019-01-23T02:51:25.109Z,22.33
2019-01-23T02:53:52.554Z,22.70
2019-01-23T02:56:20.023Z,20.63
2019-01-23T02:58:47.511Z,22.87
2019-01-23T03:01:14.960Z,21.30
2019-01-23T03:03:42.430Z,22.10
2019-01-23T03:06:09.914Z,22.97
2019-01-23T03:08:37.388Z,23.60
2019-01-23T03:11:04.836Z,23.50
2019-01-23T03:13:32.333Z,23.47
2019-01-23T03:15:59.878Z,23.63
2019-01-23T03:18:27.257Z,25.10
2019-01-23T03:20:54.711Z,21.77
2019-01-23T03:23:22.179Z,23.07
2019-01-23T03:25:49.662Z,24.43
2019-01-23T03:28:17.115Z,22.97
2019-01-23T03:30:44.611Z,23.23
2019-01-23T03:33:12.095Z,22.20
2019-01-23T03:35:39.515Z,22.83
2019-01-23T03:38:06.999Z,23.77
2019-01-23T03:40:34.472Z,22.77
2019-01-23T03:43:01.972Z,23.20
2019-01-23T03:45:29.443Z,22.70
2019-01-23T03:47:56.926Z,23.30
2019-01-23T03:50:24.441Z,23.27
2019-01-23T03:52:51.895Z,23.20
2019-01-23T03:55:19.345Z,22.90
2019-01-23T03:57:46.819Z,23.87
2019-01-23T04:00:14.286Z,21.60
2019-01-23T04:02:41.744Z,22.30
2019-01-23T04:05:09.206Z,21.07
2019-01-23T04:07:36.672Z,22.73
2019-01-23T04:10:04.148Z,21.37
2019-01-23T04:12:31.592Z,21.23
2019-01-23T04:14:59.030Z,20.80
2019-01-23T04:17:26.431Z,21.03
2019-01-23T04:19:53.849Z,21.27
2019-01-23T04:22:21.263Z,21.27
2019-01-23T04:24:48.664Z,19.33
2019-01-23T04:27:16.084Z,20.70
2019-01-23T04:29:43.511Z,20.63
2019-01-23T04:32:10.951Z,19.57
2019-01-23T04:34:38.363Z,21.70
2019-01-23T04:37:05.773Z,21.73
2019-01-23T04:39:33.175Z,21.63
2019-01-23T04:42:00.607Z,22.53
2019-01-23T04:44:28.270Z,22.53
2019-01-23T04:46:55.673Z,23.83
2019-01-23T04:49:23.099Z,23.63
2019-01-23T04:51:50.520Z,24.13
2019-01-23T04:54:17.955Z,23.57
2019-01-23T04:56:45.353Z,23.73
2019-01-23T04:59:12.763Z,25.80
2019-01-23T05:01:40.188Z,23.43
2019-01-23T05:04:07.614Z,25.60
2019-01-23T05:06:35.026Z,22.57
2019-01-23T05:09:02.453Z,23.87
2019-01-23T05:11:29.864Z,25.03
2019-01-23T05:13:57.290Z,24.70
2019-01-23T05:16:24.711Z,24.50
2019-01-23T05:18:52.129Z,24.20
2019-01-23T05:21:19.517Z,26.57
2019-01-23T05:23:46.947Z,26.43
2019-01-23T05:26:14.351Z,25.70
2019-01-23T05:28:41.841Z,25.33
2019-01-23T05:31:09.239Z,24.57
2019-01-23T05:33:36.663Z,24.67
2019-01-23T05:36:04.097Z,24.57
2019-01-23T05:38:31.525Z,24.80
2019-01-23T05:40:58.975Z,24.30
2019-01-23T05:43:26.372Z,25.53
2019-01-23T05:45:53.795Z,26.40
2019-01-23T05:48:21.188Z,24.40
2019-01-23T05:50:48.611Z,24.60
2019-01-23T05:53:16.031Z,24.23
2019-01-23T05:55:43.500Z,22.43
2019-01-23T05:58:10.845Z,24.00
2019-01-23T06:00:38.278Z,24.07
2019-01-23T06:03:05.704Z,24.07
2019-01-23T06:05:33.112Z,23.67
2019-01-23T06:08:00.541Z,24.30
2019-01-23T06:10:27.945Z,22.50
2019-01-23T06:12:55.369Z,24.07
2019-01-23T06:15:22.794Z,24.23
2019-01-23T06:17:50.194Z,23.60
2019-01-23T06:20:17.642Z,23.90
2019-01-23T06:22:45.096Z,24.27
2019-01-23T06:25:12.513Z,23.70
2019-01-23T06:27:39.950Z,23.97
2019-01-23T06:30:10.644Z,24.10
2019-01-23T06:32:37.728Z,23.70
2019-01-23T06:35:05.164Z,23.13
2019-01-23T06:37:32.556Z,22.73
2019-01-23T06:39:59.964Z,22.53
2019-01-23T06:42:27.400Z,24.00
2019-01-23T06:44:54.824Z,22.33
2019-01-23T06:47:22.298Z,22.97
2019-01-23T06:49:49.722Z,25.67
2019-01-23T06:52:17.147Z,23.27
2019-01-23T06:54:46.887Z,26.30
2019-01-23T06:57:12.031Z,24.23
2019-01-23T06:59:39.433Z,25.97
2019-01-23T07:02:06.837Z,24.17
2019-01-23T07:04:34.281Z,24.83
2019-01-23T07:07:01.690Z,24.17
2019-01-23T07:09:29.106Z,25.13
2019-01-23T07:11:56.532Z,23.87
2019-01-23T07:14:23.958Z,25.60
2019-01-23T07:16:51.389Z,24.70
2019-01-23T07:19:18.809Z,26.20
2019-01-23T07:21:46.244Z,24.67
2019-01-23T07:24:13.653Z,25.60
2019-01-23T07:26:41.086Z,25.77
2019-01-23T07:29:08.498Z,27.30
2019-01-23T07:31:35.916Z,24.90
2019-01-23T07:34:03.617Z,26.00
2019-01-23T07:36:31.249Z,24.87
2019-01-23T07:38:58.608Z,24.47
2019-01-23T07:41:26.034Z,24.57
2019-01-23T07:43:53.444Z,25.10
2019-01-23T07:46:20.888Z,24.93
2019-01-23T07:48:48.302Z,23.87
2019-01-23T07:51:15.734Z,26.03
2019-01-23T07:53:43.150Z,24.63
2019-01-23T07:56:10.572Z,25.70
2019-01-23T07:58:57.617Z,23.47
2019-01-23T08:01:25.049Z,24.67
2019-01-23T08:03:52.443Z,25.27
2019-01-23T08:06:19.859Z,23.83
2019-01-23T08:08:47.283Z,24.23
2019-01-23T08:11:14.693Z,25.03
2019-01-23T08:13:42.334Z,25.40
2019-01-23T08:16:09.726Z,24.47
2019-01-23T08:18:37.167Z,24.33
2019-01-23T08:21:04.596Z,24.30
2019-01-23T08:23:32.029Z,25.13
2019-01-23T08:26:00.299Z,25.77
2019-01-23T08:28:27.708Z,25.33
2019-01-23T08:30:55.114Z,26.40
2019-01-23T08:33:22.544Z,24.53
2019-01-23T08:35:49.958Z,25.40
2019-01-23T08:38:17.379Z,25.93
2019-01-23T08:40:44.778Z,25.40
2019-01-23T08:43:12.241Z,26.83
2019-01-23T08:45:39.653Z,25.77
2019-01-23T08:48:07.092Z,25.83
2019-01-23T08:50:34.517Z,26.27
2019-01-23T08:53:01.925Z,26.73
2019-01-23T08:55:29.356Z,26.87
2019-01-23T08:57:56.772Z,27.03
2019-01-23T09:00:24.168Z,26.33
2019-01-23T09:02:51.603Z,26.00
2019-01-23T09:05:19.027Z,27.00
2019-01-23T09:07:46.418Z,27.57
2019-01-23T09:10:13.842Z,28.53
2019-01-23T09:12:41.283Z,26.67
2019-01-23T09:15:08.723Z,27.63
2019-01-23T09:17:36.151Z,27.87
2019-01-23T09:20:03.548Z,26.07
2019-01-23T09:22:30.989Z,25.97
2019-01-23T09:24:58.388Z,26.77
2019-01-23T09:27:25.811Z,27.97
2019-01-23T09:29:53.240Z,29.40
2019-01-23T09:32:26.354Z,27.67
2019-01-23T09:34:56.443Z,29.03
2019-01-23T09:37:29.150Z,30.47
2019-01-23T09:40:05.557Z,29.10
2019-01-23T09:42:32.959Z,30.03
2019-01-23T09:45:15.131Z,29.87
2019-01-23T09:48:00.556Z,28.73
2019-01-23T09:50:30.740Z,28.77
2019-01-23T09:53:15.911Z,28.37
2019-01-23T09:55:43.339Z,28.20
2019-01-23T09:58:10.736Z,30.37
2019-01-23T10:00:38.169Z,30.43
2019-01-23T10:03:09.037Z,30.10
2019-01-23T10:05:36.464Z,31.10
2019-01-23T10:08:03.907Z,29.43
2019-01-23T10:10:31.330Z,31.17
2019-01-23T10:12:58.730Z,30.67
2019-01-23T10:15:38.325Z,29.37
2019-01-23T10:18:05.757Z,31.50
2019-01-23T10:20:33.183Z,30.37
2019-01-23T10:23:03.420Z,31.03
2019-01-23T10:25:30.823Z,30.60
2019-01-23T10:27:58.263Z,29.83
2019-01-23T10:30:25.659Z,29.90
2019-01-23T10:32:53.065Z,31.97
2019-01-23T10:35:20.547Z,29.53
2019-01-23T10:37:47.947Z,31.60
2019-01-23T10:40:15.379Z,30.60
2019-01-23T10:42:42.789Z,30.90
2019-01-23T10:45:10.222Z,29.77
2019-01-23T10:47:37.628Z,30.50
2019-01-23T10:50:05.181Z,32.03
2019-01-23T10:52:32.609Z,32.47
2019-01-23T10:55:00.290Z,31.80
2019-01-23T10:57:27.692Z,31.20
2019-01-23T10:59:55.158Z,31.63
2019-01-23T11:02:22.539Z,31.37
2019-01-23T11:04:49.979Z,29.10
2019-01-23T11:07:18.761Z,31.07
2019-01-23T11:09:44.842Z,31.77
2019-01-23T11:12:14.700Z,31.53
2019-01-23T11:14:42.096Z,30.80
2019-01-23T11:17:09.536Z,30.10
2019-01-23T11:19:36.942Z,31.23
2019-01-23T11:22:04.349Z,33.63
2019-01-23T11:24:31.786Z,33.30
2019-01-23T11:26:59.196Z,35.50
2019-01-23T11:29:26.627Z,33.80
2019-01-23T11:31:54.030Z,33.87
2019-01-23T11:34:21.465Z,34.80
2019-01-23T11:36:54.129Z,33.07
2019-01-23T11:39:21.570Z,34.57
2019-01-23T11:41:48.972Z,35.23
2019-01-23T11:44:16.412Z,35.37
2019-01-23T11:46:46.567Z,36.40
2019-01-23T11:49:13.999Z,34.27
2019-01-23T11:51:41.434Z,35.37
2019-01-23T11:54:08.838Z,35.97
2019-01-23T11:56:36.262Z,34.53
2019-01-23T11:59:03.670Z,35.90
2019-01-23T12:01:31.099Z,35.27
2019-01-23T12:03:58.546Z,33.80
2019-01-23T12:06:25.953Z,34.93
2019-01-23T12:08:53.374Z,35.63
2019-01-23T12:11:20.785Z,35.67
2019-01-23T12:13:50.649Z,36.60
2019-01-23T12:16:15.633Z,35.60
2019-01-23T12:18:43.040Z,35.23
2019-01-23T12:21:30.097Z,38.03
2019-01-23T12:23:58.332Z,35.33
2019-01-23T12:26:24.930Z,35.50
2019-01-23T12:28:52.514Z,35.73
2019-01-23T12:31:19.795Z,36.83
2019-01-23T12:33:47.228Z,35.77
2019-01-23T12:36:14.640Z,34.10
2019-01-23T12:38:42.067Z,36.33
2019-01-23T12:41:14.431Z,37.00
2019-01-23T12:43:39.889Z,38.97
2019-01-23T12:46:07.291Z,34.97
2019-01-23T12:48:34.982Z,38.00
2019-01-23T12:51:02.413Z,37.07
2019-01-23T12:53:29.828Z,38.23
2019-01-23T12:55:57.253Z,35.50
2019-01-23T12:58:24.655Z,37.60
2019-01-23T13:00:52.080Z,35.67
2019-01-23T13:03:22.454Z,38.23
2019-01-23T13:05:51.902Z,37.20
2019-01-23T13:08:17.283Z,36.27
2019-01-23T13:10:45.888Z,37.43
2019-01-23T13:13:12.321Z,37.80
2019-01-23T13:15:39.766Z,39.13
2019-01-23T13:18:07.595Z,37.63
2019-01-23T13:20:34.843Z,41.33
2019-01-23T13:23:02.224Z,37.97
2019-01-23T13:25:29.656Z,38.77
2019-01-23T13:27:57.309Z,40.50
2019-01-23T13:30:27.243Z,40.90
2019-01-23T13:32:56.213Z,41.53
2019-01-23T13:35:23.642Z,45.10
2019-01-23T13:37:51.093Z,43.67
2019-01-23T13:40:27.486Z,44.17
2019-01-23T13:42:54.887Z,41.57
2019-01-23T13:45:22.325Z,40.30
2019-01-23T13:47:49.734Z,39.97
2019-01-23T13:50:17.179Z,40.23
2019-01-23T13:52:50.280Z,41.80
2019-01-23T13:55:17.729Z,39.20
2019-01-23T13:57:45.175Z,37.60
2019-01-23T14:00:30.703Z,39.43
2019-01-23T14:02:58.185Z,43.80
2019-01-23T14:05:25.609Z,44.43
2019-01-23T14:07:53.084Z,41.27
2019-01-23T14:10:20.492Z,40.23
2019-01-23T14:12:47.922Z,40.40
2019-01-23T14:15:17.819Z,42.87
2019-01-23T14:17:47.849Z,39.57
2019-01-23T14:20:15.270Z,39.43
2019-01-23T14:22:42.726Z,38.43
2019-01-23T14:25:10.175Z,40.93
2019-01-23T14:27:37.631Z,40.17
2019-01-23T14:30:05.052Z,41.10
2019-01-23T14:32:32.475Z,41.13
2019-01-23T14:35:02.014Z,42.03
2019-01-23T14:37:29.466Z,42.37
2019-01-23T14:39:57.204Z,42.63
2019-01-23T14:42:25.504Z,43.20
2019-01-23T14:44:51.830Z,42.80
2019-01-23T14:47:19.263Z,42.53
2019-01-23T14:49:46.713Z,42.30
2019-01-23T14:52:14.115Z,45.43
2019-01-23T14:54:42.458Z,45.30
2019-01-23T14:57:12.059Z,46.73
2019-01-23T14:59:39.480Z,44.63
2019-01-23T15:02:10.363Z,46.80
2019-01-23T15:04:36.509Z,46.93
2019-01-23T15:07:03.912Z,48.73
2019-01-23T15:09:31.373Z,46.97
2019-01-23T15:12:01.511Z,45.60
2019-01-23T15:14:28.984Z,45.33
2019-01-23T15:16:56.398Z,49.10
2019-01-23T15:19:26.146Z,47.57
2019-01-23T15:21:54.820Z,48.37
2019-01-23T15:24:22.259Z,46.00
2019-01-23T15:26:49.684Z,46.37
2019-01-23T15:29:17.088Z,48.97
2019-01-23T15:31:44.832Z,49.37
2019-01-23T15:34:12.241Z,46.67
2019-01-23T15:36:39.683Z,49.93
2019-01-23T15:39:07.108Z,45.60
2019-01-23T15:41:34.553Z,47.47
2019-01-23T15:44:03.357Z,45.83
2019-01-23T15:46:29.381Z,49.47
2019-01-23T15:48:59.555Z,49.57
2019-01-23T15:51:26.985Z,49.80
2019-01-23T15:53:54.428Z,51.13
2019-01-23T15:56:21.823Z,46.50
2019-01-23T15:58:49.257Z,50.47
2019-01-23T16:01:16.658Z,48.90
2019-01-23T16:03:46.095Z,45.90
2019-01-23T16:06:13.502Z,46.70
2019-01-23T16:08:40.928Z,44.87
2019-01-23T16:11:08.351Z,44.83
2019-01-23T16:13:42.072Z,43.93
2019-01-23T16:16:03.173Z,47.47
2019-01-23T16:18:30.607Z,48.30
2019-01-23T16:20:58.054Z,47.40
2019-01-23T16:23:28.429Z,45.83
2019-01-23T16:25:55.831Z,46.80
2019-01-23T16:28:23.286Z,44.00
2019-01-23T16:30:50.702Z,47.57
2019-01-23T16:33:18.139Z,46.57
2019-01-23T16:35:45.561Z,48.00
2019-01-23T16:38:12.966Z,47.50
2019-01-23T16:40:40.403Z,45.30
2019-01-23T16:43:07.824Z,45.60
2019-01-23T16:45:35.253Z,46.47
2019-01-23T16:48:03.176Z,47.90
2019-01-23T16:50:30.116Z,45.63
2019-01-23T16:52:57.681Z,47.47
2019-01-23T16:55:25.135Z,48.27
2019-01-23T16:57:52.541Z,45.70
2019-01-23T17:00:25.400Z,46.17
2019-01-23T17:02:53.390Z,47.40
2019-01-23T17:05:20.246Z,46.97
2019-01-23T17:07:47.669Z,46.27
2019-01-23T17:10:15.384Z,46.67
2019-01-23T17:12:42.792Z,47.40
2019-01-23T17:15:11.319Z,47.00
2019-01-23T17:17:38.760Z,47.40
2019-01-23T17:20:06.158Z,45.53
2019-01-23T17:22:33.603Z,47.00
2019-01-23T17:25:01.014Z,46.97
2019-01-23T17:27:28.477Z,45.50
2019-01-23T17:29:56.288Z,48.63
2019-01-23T17:32:23.337Z,47.17
2019-01-23T17:34:50.786Z,48.33
2019-01-23T17:37:18.222Z,46.50
2019-01-23T17:39:45.635Z,48.57
2019-01-23T17:42:13.048Z,45.17
2019-01-23T17:44:40.506Z,47.37
2019-01-23T17:47:07.955Z,45.40
2019-01-23T17:49:35.385Z,46.00
2019-01-23T17:52:02.818Z,45.67
2019-01-23T17:54:30.276Z,44.30
2019-01-23T17:56:57.680Z,42.57
2019-01-23T17:59:25.109Z,43.40
2019-01-23T18:01:52.577Z,41.63
2019-01-23T18:04:20.015Z,45.43
2019-01-23T18:06:47.454Z,45.40
2019-01-23T18:09:14.866Z,45.10
2019-01-23T18:11:42.286Z,46.23
2019-01-23T18:14:09.683Z,43.87
2019-01-23T18:16:37.122Z,45.40
2019-01-23T18:19:04.793Z,44.43
2019-01-23T18:21:32.216Z,43.43
2019-01-23T18:23:59.655Z,43.77
2019-01-23T18:26:27.086Z,44.03
2019-01-23T18:28:54.522Z,44.07
2019-01-23T18:31:21.985Z,44.43
2019-01-23T18:33:49.434Z,43.77
2019-01-23T18:36:39.790Z,46.33
2019-01-23T18:39:14.338Z,45.17
2019-01-23T18:41:44.556Z,46.20
2019-01-23T18:44:23.723Z,45.20
2019-01-23T18:46:51.183Z,48.63
2019-01-23T18:49:18.649Z,46.43
2019-01-23T18:51:46.081Z,48.20
2019-01-23T18:54:13.574Z,48.53
2019-01-23T18:56:40.983Z,47.63
2019-01-23T18:59:08.418Z,47.60
2019-01-23T19:01:35.877Z,52.73
2019-01-23T19:04:03.300Z,50.60
2019-01-23T19:06:30.762Z,55.10
2019-01-23T19:08:58.212Z,53.03
2019-01-23T19:11:25.624Z,51.83
2019-01-23T19:13:53.070Z,53.17
2019-01-23T19:16:20.497Z,56.57
2019-01-23T19:18:47.907Z,53.87
2019-01-23T19:21:15.354Z,52.87
2019-01-23T19:23:42.783Z,51.90
2019-01-23T19:26:10.568Z,51.13
2019-01-23T19:28:38.011Z,53.57
2019-01-23T19:31:05.427Z,52.47
2019-01-23T19:33:32.904Z,52.70
2019-01-23T19:36:00.319Z,50.90
2019-01-23T19:38:27.762Z,51.47
2019-01-23T19:40:55.165Z,52.33
2019-01-23T19:43:22.593Z,52.03
2019-01-23T19:45:49.998Z,51.13
2019-01-23T19:48:17.507Z,50.83
2019-01-23T19:50:46.653Z,48.80
2019-01-23T19:53:14.124Z,53.60
2019-01-23T19:55:41.539Z,56.20
2019-01-23T19:58:08.988Z,52.50
2019-01-23T20:00:36.449Z,53.73
2019-01-23T20:03:03.895Z,51.20
2019-01-23T20:05:31.373Z,51.50
2019-01-23T20:07:58.789Z,48.97
2019-01-23T20:10:26.198Z,51.47
2019-01-23T20:12:53.633Z,51.63
2019-01-23T20:15:21.082Z,52.67
2019-01-23T20:17:48.530Z,50.37
2019-01-23T20:20:15.953Z,50.27
2019-01-23T20:22:43.407Z,51.03
2019-01-23T20:25:13.668Z,52.00
2019-01-23T20:27:41.108Z,52.33
2019-01-23T20:30:17.433Z,50.00
2019-01-23T20:32:44.873Z,48.77
2019-01-23T20:35:12.333Z,55.63
2019-01-23T20:37:43.467Z,52.20
2019-01-23T20:40:10.179Z,48.80
2019-01-23T20:42:37.643Z,52.23
2019-01-23T20:45:05.078Z,50.70
2019-01-23T20:47:32.499Z,52.20
2019-01-23T20:49:59.972Z,50.00
2019-01-23T20:52:27.388Z,52.00
2019-01-23T20:54:54.856Z,52.10
2019-01-23T20:57:22.309Z,51.63
2019-01-23T20:59:49.743Z,51.70
2019-01-23T21:02:17.188Z,51.70
2019-01-23T21:04:44.906Z,52.93
2019-01-23T21:07:12.386Z,50.73
2019-01-23T21:09:39.860Z,51.20
2019-01-23T21:12:07.362Z,52.63
2019-01-23T21:14:34.782Z,50.50
2019-01-23T21:17:02.227Z,51.63
2019-01-23T21:19:29.680Z,52.20
2019-01-23T21:21:57.104Z,52.30
2019-01-23T21:24:24.558Z,49.77
2019-01-23T21:26:52.001Z,48.37
2019-01-23T21:29:19.446Z,49.27
2019-01-23T21:31:46.880Z,52.70
2019-01-23T21:34:14.356Z,52.13
2019-01-23T21:36:41.788Z,50.27
2019-01-23T21:39:09.215Z,48.07
2019-01-23T21:41:36.661Z,51.80
2019-01-23T21:44:04.098Z,49.67
2019-01-23T21:46:31.569Z,51.17
2019-01-23T21:48:58.982Z,48.73
2019-01-23T21:51:26.563Z,50.47
2019-01-23T21:53:54.001Z,50.80
2019-01-23T21:56:21.439Z,50.10
2019-01-23T21:58:48.952Z,51.67
2019-01-23T22:01:16.362Z,51.33
2019-01-23T22:03:49.182Z,49.10
2019-01-23T22:06:11.246Z,47.13
2019-01-23T22:08:38.670Z,52.00
2019-01-23T22:11:06.118Z,51.90
2019-01-23T22:13:33.505Z,49.13
2019-01-23T22:16:00.977Z,49.67
2019-01-23T22:18:28.433Z,48.40
2019-01-23T22:20:55.841Z,48.63
2019-01-23T22:23:23.289Z,49.27
2019-01-23T22:25:53.217Z,47.57
2019-01-23T22:28:20.995Z,47.10
2019-01-23T22:30:48.427Z,46.17
2019-01-23T22:33:16.484Z,46.43
2019-01-23T22:35:43.926Z,44.07
2019-01-23T22:38:11.332Z,44.30
2019-01-23T22:40:38.780Z,42.30
2019-01-23T22:43:06.225Z,42.73
2019-01-23T22:45:33.682Z,42.00
2019-01-23T22:48:01.080Z,42.57
2019-01-23T22:50:28.532Z,43.10
2019-01-23T22:52:55.939Z,43.23
2019-01-23T22:55:23.377Z,44.13
2019-01-23T22:57:50.835Z,43.67
2019-01-23T23:00:21.092Z,42.70
2019-01-23T23:02:48.499Z,46.27
2019-01-23T23:05:15.930Z,44.60
2019-01-23T23:07:43.337Z,44.60
2019-01-23T23:10:10.752Z,45.30
2019-01-23T23:12:38.163Z,43.20
2019-01-23T23:15:05.576Z,44.57
2019-01-23T23:17:33.074Z,43.23
2019-01-23T23:20:00.481Z,44.77
2019-01-23T23:22:27.917Z,46.67
2019-01-23T23:24:55.319Z,44.40
2019-01-23T23:27:22.787Z,46.00
2019-01-23T23:29:50.211Z,44.33
2019-01-23T23:32:17.633Z,43.80
2019-01-23T23:34:45.083Z,46.80
2019-01-23T23:37:12.524Z,44.17
2019-01-23T23:39:39.931Z,43.80
2019-01-23T23:42:07.342Z,45.83
2019-01-23T23:44:34.794Z,47.20
2019-01-23T23:47:02.222Z,44.17
2019-01-23T23:49:29.628Z,44.67
2019-01-23T23:51:57.069Z,47.40
2019-01-23T23:54:24.504Z,46.97
2019-01-23T23:56:51.895Z,46.23
2019-01-23T23:59:19.320Z,46.23
